O74 weather

Elliotts Landing Airport
Mount Victory, Ohio, United States

Public forecast

Using degrees Fahrenheit for public forecast. Weather courtesy of forecast.io.

Closest aviation weather report (METAR) to Elliotts Landing Airport

Closest report is Bellefontaine Regional Airport, 16.8 nm (31.0 km) WSW. Retrieved 2020/01/23 13:40 UTC (8 minutes ago):

KEDJ 231340Z AUTO 10SM CLR 00/M07 A3020 RMK AO1

Closest aviation forecast (TAF) to Elliotts Landing Airport

Closest forecast is Findlay Airport, 30.2 nm (55.9 km) NNW. Retrieved 2020/01/23 12:39 UTC (1 hour ago):

TAF KFDY 231136Z 2312/2412 17006KT P6SM OVC200 FM232300 14006KT P6SM OVC080 FM240800 11007KT P6SM -SHRA OVC050 FM241100 10009KT 6SM -SHRA BR OVC030